Terminal Aerodrome Forecast
Issued by NWS

Home | Current Version | Previous Version | Text Only | Print | Product List | Glossary On
Versions: 1 2 3 4 5 6 7 8 9 10 11 12
000
FTUS45 KVEF 232300
TAFEED
TAF
KEED 232320Z 2400/2424 04012KT P6SM SCT250
     FM240300 32007KT P6SM BKN250
     FM241500 VRB05KT P6SM SCT200
     FM242100 20010KT P6SM SCT200=

USA.gov is the U.S. government's official web portal to all federal, state and local government web resources and services.